KADF

Dexter B Florence Memorial Field Airport

Arkadelphia, Arkansas, USA
METAR KADF 160156Z AUTO 00000KT 10SM CLR 08/08 A3015 RMK AO2 SLP214 T00780078 TSNO
Observed Flight Rules
Dec-16 @ 01:56 UTC (11 minutes ago) Visual Flight Rules
Visibility Clouds
10 miles
  • Clear skies
Temperatures Readings
Current 8°C / 46°F
Dewpoint 8°C / 46°F
Humidity 100%
Altimeter 30.15" Hg
Pressure 1021.4 hPa
Elevation 56
METAR KADF 160156Z AUTO 00000KT 10SM CLR 08/08 A3015 RMK AO2 SLP214 T00780078 TSNO
Observed Flight Rules
Dec-16 @ 01:56 UTC
(11 minutes ago)
VFR
Clouds
  • Clear skies
Temperature Dewpoint
8°C / 46°F 8°C / 46°F
Humidity Altimeter Pressure
100% 30.15" Hg 1021.4 hPa